This is the latest recevied weather packets stored in our database for station/object WW6Q. If no packets are shown the sender has not sent any weather packets the latest 10 day(s).
| Time | Temp. | Humidity | Pressure | Rain* | Wind** | Luminosity | Snow |
|---|---|---|---|---|---|---|---|
| 1787842936 | 23.33° C | 72% | 1014.7 hPa | 0 mm | - | 444 W/m² | - |
| 1787842635 | 23.33° C | 72% | 1014.7 hPa | 0 mm | - | 285 W/m² | - |
| 1787842330 | 23.33° C | 75% | 1014.6 hPa | 0 mm | - | 272 W/m² | - |
| 1787842030 | 23.33° C | 73% | 1014.6 hPa | 0 mm | - | 232 W/m² | - |
| 1787841727 | 22.78° C | 73% | 1014.5 hPa | 0 mm | - | 213 W/m² | - |
| 1787841427 | 22.78° C | 75% | 1014.3 hPa | 0 mm | - | 196 W/m² | - |
| 1787841121 | 22.78° C | 72% | 1014.6 hPa | 0 mm | - | 181 W/m² | - |
| 1787840816 | 22.78° C | 76% | 1014.3 hPa | 0 mm | - | 167 W/m² | - |
| 1787840511 | 22.22° C | 80% | 1014.3 hPa | 0 mm | - | 159 W/m² | - |
| 1787840207 | 22.22° C | 78% | 1014.4 hPa | 0 mm | - | 151 W/m² | - |
| 1787839906 | 21.67° C | 80% | 1014.3 hPa | 0 mm | - | 144 W/m² | - |
| 1787839602 | 21.67° C | 79% | 1014.3 hPa | 0 mm | - | 136 W/m² | - |
| 1787839302 | 21.67° C | 83% | 1014.4 hPa | 0 mm | - | 129 W/m² | - |
| 1787839001 | 21.11° C | 84% | 1014.2 hPa | 0 mm | - | 120 W/m² | - |
| 1787838700 | 21.11° C | 84% | 1014.3 hPa | 0 mm | - | 114 W/m² | - |
| 1787838399 | 21.11° C | 85% | 1014.1 hPa | 0 mm | - | 109 W/m² | - |
| 1787838099 | 21.11° C | 88% | 1014 hPa | 0 mm | - | 105 W/m² | - |
| 1787837799 | 20.56° C | 87% | 1014.3 hPa | 0 mm | - | 99 W/m² | - |
| 1787837494 | 20.56° C | 89% | 1014.2 hPa | 0 mm | - | 93 W/m² | - |
| 1787837194 | 20.56° C | 89% | 1014.3 hPa | 0 mm | - | 90 W/m² | - |
| 1787836893 | 20.56° C | 91% | 1014.3 hPa | 0 mm | - | 54 W/m² | - |
| 1787836588 | 20° C | 92% | 1014.2 hPa | 0 mm | - | 81 W/m² | - |
| 1787836288 | 20° C | 94% | 1014.3 hPa | 0 mm | - | 78 W/m² | - |
| 1787835984 | 20° C | 95% | 1014.2 hPa | 0 mm | - | 76 W/m² | - |
| 1787835680 | 19.44° C | 98% | 1014.1 hPa | 0 mm | - | 69 W/m² | - |
* Rain latest hour (hover to see other rain measurements)
** Current wind speed in m/s (hover to see current wind gust speed)